Time;durP1;ratioP1;P1;durP2;ratioP2;P2;SDS_P1;SDS_P2;PMS_P1;PMS_P2;Temp;Humidity;BMP_temperature;BMP_pressure;BME280_temperature;BME280_humidity;BME280_pressure;Samples;Min_cycle;Max_cycle;Signal;HPM_P1;HPM_P2
2021/08/29 00:00:51;;;;;;;10.47;5.57;;;13.20;99.90;;;;;;4994136;28;20168;-63
2021/08/29 00:03:17;;;;;;;5.77;5.30;;;13.20;99.90;;;;;;4994052;28;20198;-63
2021/08/29 00:05:43;;;;;;;5.97;5.47;;;13.20;99.90;;;;;;4993917;28;20242;-62
2021/08/29 00:08:08;;;;;;;5.53;5.13;;;13.20;99.90;;;;;;4994023;28;20250;-62
2021/08/29 00:10:34;;;;;;;5.90;5.40;;;13.20;99.90;;;;;;4993774;28;20476;-62
2021/08/29 00:12:59;;;;;;;7.30;6.60;;;13.20;99.90;;;;;;4993912;28;20706;-62
2021/08/29 00:15:25;;;;;;;6.73;6.10;;;13.20;99.90;;;;;;4993530;28;20668;-63
2021/08/29 00:17:50;;;;;;;5.83;5.27;;;13.30;99.90;;;;;;4992911;28;20290;-62
2021/08/29 00:20:16;;;;;;;7.40;6.27;;;13.30;99.90;;;;;;4992532;28;20182;-63
2021/08/29 00:22:41;;;;;;;6.67;6.10;;;13.40;99.90;;;;;;4992937;28;20176;-63
2021/08/29 00:25:07;;;;;;;6.00;5.50;;;13.30;99.90;;;;;;4992915;28;20168;-62
2021/08/29 00:27:33;;;;;;;8.87;5.87;;;13.30;99.90;;;;;;4992769;28;20198;-63
2021/08/29 00:29:58;;;;;;;6.57;5.83;;;13.30;99.90;;;;;;4992438;28;20916;-62
2021/08/29 00:32:24;;;;;;;6.20;5.63;;;13.30;99.90;;;;;;4992727;28;20238;-62
2021/08/29 00:34:49;;;;;;;6.20;5.70;;;13.30;99.90;;;;;;4992665;28;20709;-62
2021/08/29 00:37:15;;;;;;;6.33;5.73;;;13.30;99.90;;;;;;4992497;28;20218;-62
2021/08/29 00:39:40;;;;;;;5.57;5.10;;;13.30;99.90;;;;;;4992370;28;20180;-62
2021/08/29 00:42:09;;;;;;;7.63;5.90;;;13.40;99.90;;;;;;4992616;28;20189;-62
2021/08/29 00:44:39;;;;;;;5.97;5.47;;;13.30;99.90;;;;;;4992509;28;20167;-63
2021/08/29 00:47:07;;;;;;;6.47;5.97;;;13.30;99.90;;;;;;4992541;28;20443;-63
2021/08/29 00:49:37;;;;;;;6.03;5.53;;;13.40;99.90;;;;;;4992135;28;20837;-62
2021/08/29 00:52:04;;;;;;;6.40;5.80;;;13.50;99.90;;;;;;4992508;28;20419;-62
2021/08/29 00:54:37;;;;;;;6.63;6.07;;;13.50;99.90;;;;;;4992459;28;20422;-62
2021/08/29 00:57:07;;;;;;;6.43;5.93;;;13.60;99.90;;;;;;4992291;28;20462;-62
2021/08/29 00:59:33;;;;;;;5.77;5.30;;;13.50;99.90;;;;;;4992039;28;20422;-63
2021/08/29 01:02:06;;;;;;;6.37;5.77;;;13.50;99.90;;;;;;4992250;28;20465;-62
2021/08/29 01:04:37;;;;;;;6.17;5.67;;;13.50;99.90;;;;;;4992589;28;20684;-61
2021/08/29 01:07:10;;;;;;;7.07;6.30;;;13.60;99.90;;;;;;4991991;28;20442;-62
2021/08/29 01:09:38;;;;;;;6.60;6.00;;;13.60;99.90;;;;;;4992080;28;20419;-62
2021/08/29 01:12:05;;;;;;;7.13;6.43;;;13.60;99.90;;;;;;4992214;28;20423;-62
2021/08/29 01:14:32;;;;;;;5.83;5.33;;;13.60;99.90;;;;;;4992128;28;20419;-62
2021/08/29 01:17:01;;;;;;;6.00;5.60;;;13.60;99.90;;;;;;4957197;28;1024845;-62
2021/08/29 01:19:45;;;;;;;7.27;6.27;;;13.60;99.90;;;;;;4992532;28;20423;-62
2021/08/29 01:22:11;;;;;;;7.30;6.70;;;13.60;99.90;;;;;;4992801;28;20422;-62
2021/08/29 01:24:38;;;;;;;8.60;7.20;;;13.60;99.90;;;;;;4992767;28;21024;-63
2021/08/29 01:27:25;;;;;;;5.93;5.43;;;13.60;99.90;;;;;;4992871;28;20736;-62
2021/08/29 01:29:51;;;;;;;8.30;7.33;;;13.60;99.90;;;;;;4992328;28;20510;-63
2021/08/29 01:32:20;;;;;;;11.23;6.77;;;13.60;99.90;;;;;;4992751;28;20442;-62
2021/08/29 01:34:47;;;;;;;8.03;6.13;;;13.50;99.90;;;;;;4992666;28;20791;-62
2021/08/29 01:37:14;;;;;;;7.30;6.60;;;13.50;99.90;;;;;;4992432;28;20835;-62
2021/08/29 01:39:40;;;;;;;7.50;6.70;;;13.50;99.90;;;;;;4992335;28;20422;-62
2021/08/29 01:42:06;;;;;;;6.67;5.80;;;13.60;99.90;;;;;;4992562;28;20415;-62
2021/08/29 01:44:32;;;;;;;7.07;6.33;;;13.60;99.90;;;;;;4992528;28;20415;-62
2021/08/29 01:46:58;;;;;;;5.87;5.27;;;13.60;99.90;;;;;;4992474;28;20446;-62
2021/08/29 01:49:25;;;;;;;6.67;6.17;;;13.50;99.90;;;;;;4992196;28;20415;-62
2021/08/29 01:51:51;;;;;;;7.17;6.50;;;13.60;99.90;;;;;;4992450;28;20182;-63
2021/08/29 01:54:16;;;;;;;7.00;5.93;;;13.60;99.90;;;;;;4992379;28;20784;-63
2021/08/29 01:57:04;;;;;;;7.23;6.63;;;13.60;99.90;;;;;;4992317;28;20693;-62
2021/08/29 01:59:30;;;;;;;5.90;5.20;;;13.70;99.90;;;;;;4992127;28;20168;-62
2021/08/29 02:01:57;;;;;;;6.90;6.30;;;13.70;99.90;;;;;;4992809;28;20422;-61
2021/08/29 02:04:25;;;;;;;6.67;5.90;;;13.50;99.90;;;;;;4992401;28;20418;-62
2021/08/29 02:07:06;;;;;;;7.13;6.43;;;13.60;99.90;;;;;;4992224;28;21149;-62
2021/08/29 02:09:34;;;;;;;7.60;6.90;;;13.60;99.90;;;;;;4992105;28;20930;-62
2021/08/29 02:11:59;;;;;;;9.90;7.40;;;13.60;99.90;;;;;;4992695;28;20419;-63
2021/08/29 02:14:29;;;;;;;7.20;6.57;;;13.60;99.90;;;;;;4992251;28;20433;-61
2021/08/29 02:16:56;;;;;;;6.80;6.17;;;13.70;99.90;;;;;;4992019;28;20608;-62
2021/08/29 02:19:25;;;;;;;6.57;5.93;;;13.60;99.90;;;;;;4992526;28;20423;-62
2021/08/29 02:21:52;;;;;;;6.50;6.00;;;13.60;99.90;;;;;;4995954;28;21043;-62
2021/08/29 02:24:24;;;;;;;6.80;6.10;;;13.60;99.90;;;;;;4996080;28;20500;-62
2021/08/29 02:26:50;;;;;;;8.87;7.63;;;13.60;99.90;;;;;;4995913;28;20443;-62
2021/08/29 02:29:16;;;;;;;6.63;5.93;;;13.50;99.90;;;;;;4995576;28;20533;-62
2021/08/29 02:31:44;;;;;;;7.50;6.73;;;13.60;99.90;;;;;;4995709;28;21107;-62
2021/08/29 02:34:10;;;;;;;7.13;6.53;;;13.60;99.90;;;;;;4995839;28;20234;-62
2021/08/29 02:36:36;;;;;;;10.53;6.17;;;13.60;99.90;;;;;;4995911;28;20466;-62
2021/08/29 02:39:04;;;;;;;7.73;7.00;;;13.60;99.90;;;;;;4995470;28;20172;-62
2021/08/29 02:41:30;;;;;;;8.00;7.30;;;13.70;99.90;;;;;;4995681;28;20418;-62
2021/08/29 02:43:56;;;;;;;6.90;6.30;;;13.60;99.90;;;;;;4995524;28;20423;-61
2021/08/29 02:46:23;;;;;;;7.60;6.90;;;13.70;99.90;;;;;;4995455;28;20449;-62
2021/08/29 02:48:49;;;;;;;6.73;6.00;;;13.70;99.90;;;;;;4995324;28;20794;-61
2021/08/29 02:51:16;;;;;;;6.47;5.90;;;13.70;99.90;;;;;;4995578;28;20423;-61
2021/08/29 02:53:42;;;;;;;5.83;5.33;;;13.60;99.90;;;;;;4995485;28;20788;-62
2021/08/29 02:56:09;;;;;;;7.03;6.33;;;13.60;99.90;;;;;;4995225;28;20453;-62
2021/08/29 02:58:36;;;;;;;6.27;5.77;;;13.60;99.90;;;;;;4994923;28;20442;-61
2021/08/29 03:01:02;;;;;;;6.57;5.60;;;13.60;99.90;;;;;;4995335;28;21227;-62
2021/08/29 03:03:28;;;;;;;9.60;6.23;;;13.60;99.90;;;;;;4995553;28;20411;-62
2021/08/29 03:05:54;;;;;;;6.30;5.77;;;13.60;99.90;;;;;;4995241;28;20445;-62
2021/08/29 03:08:20;;;;;;;6.50;5.80;;;13.60;99.90;;;;;;4994987;28;20167;-61
2021/08/29 03:10:45;;;;;;;7.17;6.03;;;13.60;99.90;;;;;;4995010;28;20591;-62
2021/08/29 03:13:13;;;;;;;7.70;5.83;;;13.70;99.90;;;;;;4994998;28;20689;-62
2021/08/29 03:15:39;;;;;;;7.27;6.57;;;13.60;99.90;;;;;;4994916;28;20993;-61
2021/08/29 03:18:05;;;;;;;7.10;5.93;;;13.60;99.90;;;;;;4994852;28;20463;-61
2021/08/29 03:20:30;;;;;;;5.83;5.33;;;13.60;99.90;;;;;;4994649;28;20638;-61
2021/08/29 03:22:56;;;;;;;6.17;5.67;;;13.70;99.90;;;;;;4994911;28;20175;-62
2021/08/29 03:25:22;;;;;;;6.27;5.67;;;13.70;99.90;;;;;;4994877;28;20206;-62
2021/08/29 03:27:48;;;;;;;7.63;5.77;;;13.60;99.90;;;;;;4994649;28;20183;-61
2021/08/29 03:30:14;;;;;;;7.00;6.33;;;13.50;99.90;;;;;;4994446;28;20214;-61
2021/08/29 03:32:40;;;;;;;6.23;5.63;;;13.50;99.90;;;;;;4994775;28;20411;-62
2021/08/29 03:35:08;;;;;;;6.30;5.70;;;13.50;99.90;;;;;;4994712;28;20450;-61
2021/08/29 03:37:34;;;;;;;6.63;5.93;;;13.40;99.90;;;;;;4994486;28;20473;-61
2021/08/29 03:40:02;;;;;;;8.67;6.10;;;13.40;99.90;;;;;;4994308;28;20418;-61
2021/08/29 03:42:31;;;;;;;8.27;5.87;;;13.40;99.90;;;;;;4994349;28;20258;-62
2021/08/29 03:44:58;;;;;;;6.00;5.43;;;13.40;99.90;;;;;;4993233;28;20422;-62
2021/08/29 03:47:24;;;;;;;6.60;6.00;;;13.50;99.90;;;;;;4994583;28;20435;-61
2021/08/29 03:49:50;;;;;;;7.30;6.70;;;13.50;99.90;;;;;;4994081;28;20429;-62
2021/08/29 03:52:20;;;;;;;6.60;6.00;;;13.50;99.90;;;;;;4994346;28;20230;-61
2021/08/29 03:54:46;;;;;;;6.33;5.83;;;13.50;99.90;;;;;;4994303;28;20638;-62
2021/08/29 03:57:13;;;;;;;6.20;5.57;;;13.60;99.90;;;;;;4994017;28;20991;-61
2021/08/29 03:59:39;;;;;;;6.90;6.20;;;13.60;99.90;;;;;;4993963;28;20474;-61
2021/08/29 04:02:05;;;;;;;8.57;5.47;;;13.50;99.90;;;;;;4994210;28;20876;-61
2021/08/29 04:04:32;;;;;;;8.10;6.93;;;13.40;99.90;;;;;;4994184;28;20920;-62
2021/08/29 04:07:01;;;;;;;7.53;6.80;;;13.40;99.90;;;;;;4994011;28;20678;-62
2021/08/29 04:09:29;;;;;;;6.40;5.80;;;13.30;99.90;;;;;;4993759;28;20877;-62
2021/08/29 04:11:56;;;;;;;6.00;5.50;;;13.30;99.90;;;;;;4993992;28;20465;-62
2021/08/29 04:14:22;;;;;;;6.80;6.17;;;13.30;99.90;;;;;;4993938;28;20431;-62
2021/08/29 04:16:49;;;;;;;8.97;6.10;;;13.40;99.90;;;;;;4994245;28;20516;-59
2021/08/29 04:19:16;;;;;;;8.10;6.30;;;13.40;99.90;;;;;;4993575;28;20411;-60
2021/08/29 04:21:42;;;;;;;8.10;7.30;;;13.30;99.90;;;;;;4993795;28;20943;-60
2021/08/29 04:24:08;;;;;;;8.90;6.30;;;13.50;99.90;;;;;;4993695;28;20422;-58
2021/08/29 04:26:34;;;;;;;9.23;6.63;;;13.50;99.90;;;;;;4993593;28;20227;-59
2021/08/29 04:28:59;;;;;;;7.27;6.57;;;13.30;99.90;;;;;;4993407;28;20467;-57
2021/08/29 04:31:30;;;;;;;6.83;6.10;;;13.10;99.90;;;;;;4993592;28;20171;-61
2021/08/29 04:33:56;;;;;;;7.50;6.80;;;13.10;99.90;;;;;;4993592;28;20646;-60
2021/08/29 04:36:22;;;;;;;8.63;7.83;;;13.10;99.90;;;;;;4993404;28;20493;-59
2021/08/29 04:38:48;;;;;;;8.77;7.97;;;13.00;99.90;;;;;;4993142;28;20423;-61
2021/08/29 04:41:13;;;;;;;8.00;7.17;;;12.90;99.90;;;;;;4993341;28;20564;-61
2021/08/29 04:43:39;;;;;;;7.33;6.60;;;12.80;99.90;;;;;;4992942;28;20202;-58
2021/08/29 04:46:05;;;;;;;7.97;7.17;;;12.80;99.90;;;;;;4993290;28;20307;-60
2021/08/29 04:48:31;;;;;;;8.00;7.30;;;12.90;99.90;;;;;;4993028;28;20171;-59
2021/08/29 04:50:58;;;;;;;8.80;6.57;;;12.80;99.90;;;;;;4993304;28;20241;-58
2021/08/29 04:53:23;;;;;;;8.20;7.50;;;12.90;99.90;;;;;;4993136;28;20445;-59
2021/08/29 04:55:49;;;;;;;8.60;7.27;;;12.90;99.90;;;;;;4993055;28;20933;-61
2021/08/29 04:58:14;;;;;;;8.50;7.70;;;12.90;99.90;;;;;;4992953;28;20214;-61
2021/08/29 05:00:40;;;;;;;9.07;8.27;;;12.90;99.90;;;;;;4992913;28;20250;-59
2021/08/29 05:03:05;;;;;;;8.43;7.73;;;12.80;99.90;;;;;;4993100;28;20175;-60
2021/08/29 05:05:31;;;;;;;8.27;7.57;;;12.80;99.90;;;;;;4992948;28;20180;-59
2021/08/29 05:07:56;;;;;;;7.60;6.90;;;12.70;99.90;;;;;;4992910;28;20645;-58
2021/08/29 05:10:22;;;;;;;9.13;7.60;;;12.60;99.90;;;;;;4992726;28;20167;-61
2021/08/29 05:12:48;;;;;;;7.60;6.90;;;12.60;99.90;;;;;;4992943;28;20222;-58
2021/08/29 05:15:13;;;;;;;8.47;7.57;;;12.60;99.90;;;;;;4992808;28;20175;-59
2021/08/29 05:17:39;;;;;;;9.30;7.87;;;12.50;99.90;;;;;;4992717;28;20203;-62
2021/08/29 05:20:05;;;;;;;7.90;7.10;;;12.50;99.90;;;;;;4992593;28;20254;-60
2021/08/29 05:22:30;;;;;;;8.93;8.03;;;12.40;99.90;;;;;;4992627;28;20176;-60
2021/08/29 05:24:56;;;;;;;9.13;8.23;;;12.40;99.90;;;;;;4992728;28;20928;-58
2021/08/29 05:27:21;;;;;;;9.57;7.83;;;12.40;99.90;;;;;;4992654;28;20214;-59
2021/08/29 05:29:47;;;;;;;8.90;7.70;;;12.40;99.90;;;;;;4992352;28;20179;-58
2021/08/29 05:32:12;;;;;;;10.97;8.00;;;12.30;99.90;;;;;;4992723;28;20230;-59
2021/08/29 05:34:38;;;;;;;9.67;8.30;;;12.40;99.90;;;;;;4992645;28;20237;-60
2021/08/29 05:37:04;;;;;;;9.20;7.90;;;12.30;99.90;;;;;;4992340;28;20254;-59
2021/08/29 05:39:29;;;;;;;7.90;7.20;;;12.30;99.90;;;;;;4992229;28;20176;-60
2021/08/29 05:41:55;;;;;;;8.53;7.73;;;12.30;99.90;;;;;;4991468;28;20170;-61
2021/08/29 05:44:20;;;;;;;7.67;6.97;;;12.40;99.90;;;;;;4992560;28;20277;-60
2021/08/29 05:46:46;;;;;;;9.67;6.63;;;12.40;99.90;;;;;;4992394;28;20219;-62
2021/08/29 05:49:11;;;;;;;7.87;7.13;;;12.50;99.90;;;;;;4992189;28;20195;-62
2021/08/29 05:51:37;;;;;;;6.67;6.03;;;12.60;99.90;;;;;;4992414;28;20688;-62
2021/08/29 05:54:03;;;;;;;8.23;6.40;;;12.60;99.90;;;;;;4992542;28;20171;-59
2021/08/29 05:56:28;;;;;;;5.83;5.33;;;12.50;99.90;;;;;;4996407;28;20203;-59
2021/08/29 05:58:54;;;;;;;5.90;5.30;;;12.40;99.90;;;;;;4996229;28;20172;-61
2021/08/29 06:01:20;;;;;;;6.30;5.70;;;12.30;99.90;;;;;;4996385;28;20250;-59
2021/08/29 06:03:45;;;;;;;5.40;4.90;;;12.30;99.90;;;;;;4996376;28;20319;-60
2021/08/29 06:06:11;;;;;;;5.40;4.90;;;12.30;99.90;;;;;;4996157;28;20191;-60
2021/08/29 06:08:36;;;;;;;5.53;5.03;;;12.30;99.90;;;;;;4996004;28;20172;-56
2021/08/29 06:11:03;;;;;;;7.50;5.47;;;12.40;99.90;;;;;;4996277;28;20172;-59
2021/08/29 06:13:29;;;;;;;4.50;4.10;;;12.40;99.90;;;;;;4996084;28;20249;-60
2021/08/29 06:15:54;;;;;;;5.43;5.00;;;12.40;99.90;;;;;;4996071;28;20889;-58
2021/08/29 06:18:20;;;;;;;5.33;4.47;;;12.40;99.90;;;;;;4995956;28;20685;-57
2021/08/29 06:20:45;;;;;;;5.10;4.70;;;12.30;99.90;;;;;;4995814;28;20251;-56
2021/08/29 06:23:11;;;;;;;4.53;4.17;;;12.40;99.90;;;;;;4995962;28;20175;-57
2021/08/29 06:25:37;;;;;;;4.80;4.40;;;12.40;99.90;;;;;;4996125;28;20558;-60
2021/08/29 06:28:02;;;;;;;4.93;3.97;;;12.40;99.90;;;;;;4995930;28;20172;-61
2021/08/29 06:30:29;;;;;;;3.63;3.33;;;12.50;99.90;;;;;;4995696;28;20799;-59
2021/08/29 06:32:55;;;;;;;3.80;3.50;;;12.60;99.90;;;;;;4995877;28;20202;-60
2021/08/29 06:35:20;;;;;;;3.50;3.20;;;12.50;99.90;;;;;;4995649;28;20772;-57
2021/08/29 06:37:46;;;;;;;3.57;3.27;;;12.50;99.90;;;;;;4995640;28;20270;-61
2021/08/29 06:40:12;;;;;;;3.53;3.30;;;12.40;99.90;;;;;;4995448;28;20206;-62
2021/08/29 06:42:38;;;;;;;3.70;3.40;;;12.30;99.90;;;;;;4995715;28;20248;-62
2021/08/29 06:45:03;;;;;;;3.57;3.27;;;12.30;99.90;;;;;;4995605;28;20448;-61
2021/08/29 06:47:29;;;;;;;4.20;3.63;;;12.20;99.90;;;;;;4995490;28;20574;-60
2021/08/29 06:49:54;;;;;;;3.53;3.17;;;12.30;99.90;;;;;;4995144;28;20549;-60
2021/08/29 06:52:20;;;;;;;3.47;3.17;;;12.20;99.90;;;;;;4995405;28;20653;-60
2021/08/29 06:54:45;;;;;;;3.90;3.60;;;12.30;99.90;;;;;;4995441;28;20182;-58
2021/08/29 06:57:11;;;;;;;3.57;3.27;;;12.30;99.90;;;;;;4995255;28;20211;-61
2021/08/29 06:59:36;;;;;;;4.07;3.67;;;12.30;99.90;;;;;;4993819;28;20254;-60
2021/08/29 07:02:02;;;;;;;3.63;3.33;;;12.30;99.90;;;;;;4995075;28;20616;-57
2021/08/29 07:04:28;;;;;;;3.70;3.40;;;12.30;99.90;;;;;;4995261;28;20606;-60
2021/08/29 07:06:53;;;;;;;4.87;4.47;;;12.40;99.90;;;;;;4994729;28;20200;-58
2021/08/29 07:09:19;;;;;;;2.70;2.50;;;12.60;99.90;;;;;;4994896;28;20172;-58
2021/08/29 07:11:44;;;;;;;4.40;3.73;;;12.50;99.90;;;;;;4995243;28;20183;-59
2021/08/29 07:14:10;;;;;;;3.27;2.73;;;12.50;99.90;;;;;;4995111;28;20211;-58
2021/08/29 07:16:35;;;;;;;3.23;3.03;;;12.50;99.90;;;;;;4994971;28;20298;-58
2021/08/29 07:19:01;;;;;;;3.37;3.07;;;12.50;99.90;;;;;;4994628;28;20234;-61
2021/08/29 07:21:26;;;;;;;3.43;3.13;;;12.60;99.90;;;;;;4994826;28;20179;-60
2021/08/29 07:23:52;;;;;;;3.13;2.70;;;12.60;99.90;;;;;;4994897;28;20641;-61
2021/08/29 07:26:18;;;;;;;3.50;3.30;;;12.80;99.90;;;;;;4995073;28;20219;-61
2021/08/29 07:28:44;;;;;;;2.77;2.57;;;12.90;99.90;;;;;;4994665;28;20258;-59
2021/08/29 07:31:10;;;;;;;3.20;3.00;;;12.90;99.90;;;;;;4994797;28;20172;-61
2021/08/29 07:33:37;;;;;;;2.60;2.40;;;13.00;99.90;;;;;;4994577;28;20419;-60
2021/08/29 07:36:03;;;;;;;2.77;2.57;;;13.00;99.90;;;;;;4994520;28;20446;-60
2021/08/29 07:38:28;;;;;;;2.77;2.57;;;13.10;99.90;;;;;;4994262;28;20549;-58
2021/08/29 07:40:54;;;;;;;2.70;2.47;;;13.20;99.90;;;;;;4994631;28;20984;-58
2021/08/29 07:43:19;;;;;;;2.70;2.50;;;13.40;99.90;;;;;;4994516;28;20164;-58
2021/08/29 07:45:45;;;;;;;1.70;1.60;;;13.30;99.90;;;;;;4994412;28;20246;-61
2021/08/29 07:48:11;;;;;;;1.70;1.60;;;13.20;99.90;;;;;;4994381;28;20297;-58
2021/08/29 07:50:36;;;;;;;2.10;2.00;;;13.20;99.90;;;;;;4994181;28;20600;-58
2021/08/29 07:53:02;;;;;;;2.17;1.97;;;13.20;99.90;;;;;;4994399;28;20589;-57
2021/08/29 07:55:28;;;;;;;1.40;1.30;;;13.30;99.90;;;;;;4994526;28;20183;-61
2021/08/29 07:57:53;;;;;;;1.70;1.60;;;13.10;99.90;;;;;;4994241;28;20975;-58
2021/08/29 08:00:19;;;;;;;1.57;1.47;;;13.00;99.90;;;;;;4993975;28;20675;-58
2021/08/29 08:02:45;;;;;;;1.83;1.73;;;13.00;99.90;;;;;;4994161;28;20168;-57
2021/08/29 08:05:10;;;;;;;2.00;1.90;;;13.10;99.90;;;;;;4994151;28;20167;-59
2021/08/29 08:07:36;;;;;;;2.23;2.10;;;13.20;99.90;;;;;;4993924;28;20238;-59
2021/08/29 08:10:03;;;;;;;1.70;1.30;;;13.30;99.90;;;;;;4993814;28;20649;-58
2021/08/29 08:12:31;;;;;;;2.13;1.93;;;13.20;99.90;;;;;;4994101;28;20171;-60
2021/08/29 08:14:57;;;;;;;2.50;2.40;;;13.20;99.90;;;;;;4994015;28;20458;-61
2021/08/29 08:17:23;;;;;;;1.93;1.83;;;13.20;99.90;;;;;;4992750;28;20509;-62
2021/08/29 08:19:48;;;;;;;2.10;2.00;;;13.20;99.90;;;;;;4993553;28;20426;-62
2021/08/29 08:22:14;;;;;;;1.40;1.30;;;13.20;99.90;;;;;;4993713;28;20208;-62
2021/08/29 08:24:40;;;;;;;1.63;1.53;;;13.20;99.90;;;;;;4993856;28;20164;-62
2021/08/29 08:27:05;;;;;;;1.60;1.50;;;13.20;99.90;;;;;;4993723;28;20449;-58
2021/08/29 08:29:31;;;;;;;1.60;1.50;;;13.20;99.90;;;;;;4993372;28;20180;-58
2021/08/29 08:31:57;;;;;;;1.60;1.50;;;13.30;99.90;;;;;;4993627;28;20172;-61
2021/08/29 08:34:22;;;;;;;1.80;1.53;;;13.40;99.90;;;;;;4993778;28;20370;-59
2021/08/29 08:36:48;;;;;;;3.23;2.93;;;13.50;99.90;;;;;;4993309;28;20211;-59
2021/08/29 08:39:13;;;;;;;3.03;1.97;;;13.70;99.90;;;;;;4993158;28;20222;-61
2021/08/29 08:41:39;;;;;;;2.80;2.60;;;13.80;99.90;;;;;;4993575;28;20709;-58
2021/08/29 08:44:06;;;;;;;3.37;2.80;;;14.00;99.90;;;;;;4993425;28;20164;-56
2021/08/29 08:46:31;;;;;;;2.37;2.27;;;14.10;99.90;;;;;;4991970;28;20474;-60
2021/08/29 08:49:01;;;;;;;3.07;2.77;;;14.30;99.90;;;;;;4993102;28;20477;-59
2021/08/29 08:51:29;;;;;;;2.57;2.40;;;14.60;99.90;;;;;;4993069;28;20440;-62
2021/08/29 08:53:56;;;;;;;4.17;3.87;;;14.80;99.90;;;;;;4993192;28;20427;-61
2021/08/29 08:56:22;;;;;;;3.10;2.90;;;15.10;99.90;;;;;;4993052;28;20940;-61
2021/08/29 08:58:48;;;;;;;3.70;3.30;;;15.40;99.90;;;;;;4992886;28;20418;-62
2021/08/29 09:01:14;;;;;;;3.50;3.30;;;15.60;99.90;;;;;;4992972;28;20438;-59
2021/08/29 09:03:41;;;;;;;4.43;4.13;;;15.60;99.90;;;;;;4993347;28;20415;-60
2021/08/29 09:06:07;;;;;;;5.60;5.17;;;15.40;99.90;;;;;;4992874;28;20187;-59
2021/08/29 09:08:34;;;;;;;5.10;4.20;;;15.40;99.90;;;;;;4992620;28;20775;-58
2021/08/29 09:11:01;;;;;;;5.00;4.30;;;15.40;99.90;;;;;;4992973;28;20422;-60
2021/08/29 09:13:26;;;;;;;3.53;3.33;;;15.30;99.90;;;;;;4992923;28;20530;-61
2021/08/29 09:16:13;;;;;;;4.70;4.33;;;15.20;99.90;;;;;;4991362;28;20489;-59
2021/08/29 09:18:59;;;;;;;4.43;4.13;;;15.00;99.90;;;;;;4992578;28;20179;-57
2021/08/29 09:21:30;;;;;;;4.70;4.30;;;14.90;99.90;;;;;;4992654;28;20411;-61
2021/08/29 09:23:58;;;;;;;4.70;4.40;;;15.10;99.90;;;;;;4992827;28;20411;-61
2021/08/29 09:26:25;;;;;;;4.77;4.37;;;15.20;99.90;;;;;;4992644;28;20585;-61
2021/08/29 09:28:55;;;;;;;4.80;4.40;;;15.20;99.90;;;;;;4992183;28;20629;-59
2021/08/29 09:31:20;;;;;;;6.70;5.23;;;15.10;99.90;;;;;;4992578;28;20426;-58
2021/08/29 09:34:02;;;;;;;5.80;5.30;;;15.10;99.90;;;;;;4992630;28;20415;-58
2021/08/29 09:36:35;;;;;;;5.47;5.00;;;15.30;99.90;;;;;;4992401;28;20218;-59
2021/08/29 09:39:21;;;;;;;5.63;5.23;;;15.30;99.90;;;;;;4992322;28;20979;-61
2021/08/29 09:41:46;;;;;;;7.27;6.63;;;15.30;99.90;;;;;;4992651;28;20510;-59
2021/08/29 09:44:18;;;;;;;6.20;5.73;;;15.40;99.90;;;;;;4992615;28;20457;-57
2021/08/29 09:46:56;;;;;;;6.00;5.50;;;15.50;99.90;;;;;;4992510;28;20199;-59
2021/08/29 09:49:30;;;;;;;5.00;4.60;;;15.40;99.90;;;;;;4992177;28;20789;-61
2021/08/29 09:51:57;;;;;;;6.60;6.10;;;15.60;99.90;;;;;;4992536;28;20780;-62
2021/08/29 09:54:49;;;;;;;5.77;5.17;;;15.90;99.90;;;;;;4992587;28;20884;-59
2021/08/29 09:57:14;;;;;;;7.40;5.60;;;16.40;99.90;;;;;;4990262;28;20517;-59
2021/08/29 09:59:45;;;;;;;6.17;5.67;;;16.60;99.90;;;;;;4992123;28;20458;-59
2021/08/29 10:02:16;;;;;;;5.80;5.40;;;16.50;99.90;;;;;;4992332;28;20642;-57
2021/08/29 10:04:42;;;;;;;5.23;4.83;;;16.50;99.90;;;;;;4992332;28;20414;-59
2021/08/29 10:07:17;;;;;;;5.57;5.17;;;16.50;99.90;;;;;;4992593;28;20438;-59
2021/08/29 10:09:44;;;;;;;5.40;5.00;;;16.40;99.90;;;;;;4992081;28;20179;-62
2021/08/29 10:12:10;;;;;;;6.60;6.07;;;16.50;99.90;;;;;;4990968;28;20438;-59
2021/08/29 10:14:38;;;;;;;5.80;5.40;;;16.60;99.90;;;;;;4992332;28;20426;-61
2021/08/29 10:17:04;;;;;;;4.63;4.33;;;16.80;99.90;;;;;;5030838;23;20474;-61
2021/08/29 10:19:32;;;;;;;5.90;5.50;;;17.20;99.90;;;;;;4991494;28;20430;-61
2021/08/29 10:21:58;;;;;;;4.47;4.17;;;17.30;99.90;;;;;;4992148;28;20496;-59
2021/08/29 10:24:32;;;;;;;4.47;4.17;;;17.60;99.90;;;;;;4992299;28;20411;-60
2021/08/29 10:27:03;;;;;;;4.60;4.30;;;17.60;99.90;;;;;;4992266;28;20864;-59
2021/08/29 10:29:34;;;;;;;5.30;4.90;;;17.60;99.90;;;;;;4991879;28;20418;-60
2021/08/29 10:32:12;;;;;;;4.63;4.33;;;17.60;99.90;;;;;;4992204;28;20418;-60
2021/08/29 10:34:39;;;;;;;5.33;4.50;;;17.40;99.90;;;;;;4992200;28;20426;-60
2021/08/29 10:37:05;;;;;;;5.67;5.27;;;17.30;99.90;;;;;;4991983;28;20838;-60
2021/08/29 10:39:31;;;;;;;5.13;4.83;;;17.10;99.90;;;;;;4991849;28;20419;-59
2021/08/29 10:42:00;;;;;;;5.07;4.67;;;17.20;99.90;;;;;;4995135;28;20782;-58
2021/08/29 10:44:25;;;;;;;5.40;5.00;;;17.30;99.90;;;;;;4995676;28;20506;-60
2021/08/29 10:46:52;;;;;;;6.17;5.70;;;17.10;99.90;;;;;;4995455;28;20521;-60
2021/08/29 10:49:19;;;;;;;5.80;5.40;;;16.70;99.90;;;;;;4995197;28;20176;-59
2021/08/29 10:51:46;;;;;;;4.87;4.47;;;16.40;99.90;;;;;;4995697;28;21026;-59
2021/08/29 10:54:14;;;;;;;6.97;6.33;;;16.40;99.90;;;;;;4995502;28;20465;-58
2021/08/29 10:56:41;;;;;;;5.83;5.43;;;16.50;99.90;;;;;;4995334;28;20454;-58
2021/08/29 10:59:06;;;;;;;6.30;5.70;;;16.80;99.90;;;;;;4995039;28;20418;-60
2021/08/29 11:01:44;;;;;;;5.47;5.07;;;17.20;99.90;;;;;;4995257;28;20828;-60
2021/08/29 11:04:35;;;;;;;4.30;4.00;;;17.40;99.90;;;;;;4995332;28;20172;-61
2021/08/29 11:07:06;;;;;;;5.00;4.70;;;17.30;99.90;;;;;;4994897;28;20455;-61
2021/08/29 11:09:40;;;;;;;4.60;4.30;;;17.20;99.90;;;;;;4994991;28;20497;-61
2021/08/29 11:12:15;;;;;;;4.93;4.63;;;17.20;99.90;;;;;;4995153;28;21006;-59
2021/08/29 11:14:49;;;;;;;4.47;4.13;;;17.10;99.90;;;;;;4995030;28;20937;-61
2021/08/29 11:17:29;;;;;;;4.87;4.57;;;17.10;99.90;;;;;;4994782;28;20898;-61
2021/08/29 11:20:16;;;;;;;4.70;4.30;;;17.40;99.90;;;;;;4994816;28;20417;-60
2021/08/29 11:22:45;;;;;;;5.50;5.10;;;17.30;99.90;;;;;;4994986;28;20446;-58
2021/08/29 11:25:19;;;;;;;4.93;4.53;;;17.20;99.90;;;;;;4994945;28;20510;-60
2021/08/29 11:27:59;;;;;;;4.67;4.37;;;16.90;99.90;;;;;;4994909;28;20438;-60
2021/08/29 11:30:34;;;;;;;5.20;4.90;;;16.60;99.90;;;;;;4994584;28;20426;-60
2021/08/29 11:33:14;;;;;;;5.20;4.80;;;16.60;99.90;;;;;;4994740;28;20418;-59
2021/08/29 11:35:50;;;;;;;5.40;5.00;;;16.70;99.90;;;;;;4994647;28;20438;-60
2021/08/29 11:38:19;;;;;;;5.37;4.97;;;16.80;99.90;;;;;;4994545;28;20470;-60
2021/08/29 11:40:54;;;;;;;4.47;4.17;;;17.20;99.90;;;;;;4994527;28;20465;-61
2021/08/29 11:43:31;;;;;;;4.77;4.47;;;17.80;99.90;;;;;;4994513;28;20419;-61
2021/08/29 11:46:08;;;;;;;3.70;3.50;;;18.40;99.90;;;;;;4994485;28;20434;-58
2021/08/29 11:48:34;;;;;;;4.00;3.70;;;18.80;99.90;;;;;;4994228;28;20915;-61
2021/08/29 11:51:03;;;;;;;4.20;4.00;;;18.50;99.90;;;;;;4994429;28;20423;-59
2021/08/29 11:53:28;;;;;;;5.13;4.73;;;18.60;99.90;;;;;;4993338;28;20222;-59
2021/08/29 11:56:08;;;;;;;5.20;4.90;;;18.40;99.90;;;;;;4994191;28;20943;-61
2021/08/29 11:58:34;;;;;;;4.60;4.30;;;17.80;99.90;;;;;;4994017;28;20703;-60
2021/08/29 12:01:04;;;;;;;4.83;4.47;;;17.60;99.90;;;;;;4994206;28;20415;-60
2021/08/29 12:03:35;;;;;;;5.60;5.20;;;17.30;99.90;;;;;;4992987;28;20927;-60
2021/08/29 12:06:07;;;;;;;4.60;4.30;;;17.20;99.90;;;;;;4994137;28;20810;-59
2021/08/29 12:08:51;;;;;;;5.30;5.00;;;17.10;99.90;;;;;;4993902;28;20419;-61
2021/08/29 12:11:19;;;;;;;4.23;3.93;;;17.00;99.90;;;;;;4994164;28;20415;-62
2021/08/29 12:13:45;;;;;;;4.77;4.37;;;16.90;99.90;;;;;;4994025;28;20455;-60
2021/08/29 12:16:11;;;;;;;4.07;3.77;;;17.00;99.90;;;;;;4993868;28;20537;-61
2021/08/29 12:18:39;;;;;;;4.37;4.07;;;17.10;99.90;;;;;;4993537;28;20494;-60
2021/08/29 12:21:07;;;;;;;5.10;4.70;;;17.20;99.90;;;;;;4994091;28;20446;-59
2021/08/29 12:23:35;;;;;;;5.33;4.77;;;17.10;99.90;;;;;;4993826;28;20827;-58
2021/08/29 12:26:03;;;;;;;6.10;5.70;;;17.10;99.90;;;;;;4993692;28;20439;-59
2021/08/29 12:28:30;;;;;;;4.90;4.60;;;17.10;99.90;;;;;;4993813;28;20457;-60
2021/08/29 12:30:56;;;;;;;6.03;5.53;;;17.20;99.90;;;;;;4993612;28;20426;-61
2021/08/29 12:33:23;;;;;;;6.60;6.00;;;17.10;99.90;;;;;;4993664;28;20427;-61
2021/08/29 12:35:50;;;;;;;5.03;4.70;;;17.10;99.90;;;;;;4993488;28;20545;-59
2021/08/29 12:38:30;;;;;;;5.90;5.43;;;16.90;99.90;;;;;;4993354;28;20462;-61
2021/08/29 12:40:57;;;;;;;5.00;4.70;;;16.90;99.90;;;;;;4993553;28;20569;-60
2021/08/29 12:43:28;;;;;;;4.50;4.10;;;16.90;99.90;;;;;;4993427;28;20503;-60
2021/08/29 12:45:55;;;;;;;5.23;4.80;;;17.00;99.90;;;;;;4993277;28;20890;-60
2021/08/29 12:48:22;;;;;;;5.83;5.43;;;16.90;99.90;;;;;;4993184;28;20797;-61